Flight Track Log - Related Links

Times and Time Zones

All times are in EDT time to prevent confusion due to time zone crossing. See the SWA3247 flight status page for this flight to view local times or setup timezone preferences in your user account.

Time Position Orientation Groundspeed Altitude Reporting Facility
EDT Latitude Longitude Course Direction KTS MPH feet Rate Location/Type
Tue 09:07:01 PM 36.0772 -115.1731 271° West 181 208 3,000  Level Los Angeles Center
Tue 09:07:57 PM 36.0781 -115.2233 271° West 190 219 4,300 1,627 Climbing Los Angeles Center
Tue 09:08:59 PM 36.1250 -115.2889 312° West 257 296 6,200 2,146 Climbing Los Angeles Center
Tue 09:10:00 PM 36.1822 -115.2278 41° Northeast 291 335 8,700 2,589 Climbing Los Angeles Center
Tue 09:10:34 PM 36.1975 -115.1708 72° East 298 343 10,300 2,323 Climbing Los Angeles Center
Tue 09:12:04 PM 36.1978 -115.0075 90° East 343 395 13,500 2,305 Climbing Los Angeles Center
Tue 09:13:05 PM 36.1992 -114.8908 89° East 342 394 16,100 2,585 Climbing Los Angeles Center
Tue 09:14:07 PM 36.1992 -114.7733 90° East 343 395 18,800 2,129 Climbing Los Angeles Center
Tue 09:15:09 PM 36.1986 -114.6483 90° East 360 414 20,500 1,984 Climbing Los Angeles Center
Tue 09:16:11 PM 36.1956 -114.4875 91° East 386 444 22,900 2,098 Climbing Los Angeles Center
Tue 09:17:12 PM 36.1944 -114.3497 91° East 399 459 24,800 1,659 Climbing Los Angeles Center
Tue 09:18:14 PM 36.1944 -114.2081 90° East 410 472 26,300 1,452 Climbing Los Angeles Center
Tue 09:19:16 PM 36.2147 -114.0628 80° East 425 489 27,800 1,452 Climbing Los Angeles Center
Tue 09:20:18 PM 36.2328 -113.9142 81° East 434 499 29,300 1,561 Climbing Los Angeles Center
Tue 09:21:19 PM 36.2503 -113.7642 82° East 439 505 31,000 1,561 Climbing Los Angeles Center
Tue 09:22:21 PM 36.2669 -113.6153 82° East 438 504 32,500 1,500 Climbing Los Angeles Center
Tue 09:23:23 PM 36.2997 -113.4417 77° East 436 502 34,100 1,258 Climbing Los Angeles Center
Tue 09:24:25 PM 36.3486 -113.3031 66° East 438 504 35,100 976 Climbing Los Angeles Center
Tue 09:25:26 PM 36.3981 -113.1581 67° East 443 510 36,100 927 Climbing Los Angeles Center
Tue 09:26:28 PM 36.4478 -113.0172 66° East 446 513 37,000 435 Climbing Los Angeles Center
Tue 09:27:30 PM 36.4972 -112.8753 67° East 449 517 37,000  Level Los Angeles Center
Tue 09:28:31 PM 36.5461 -112.7350 67° East 446 513 37,000  Level Los Angeles Center
Tue 09:29:45 PM 36.6053 -112.5658 66° East 447 514 37,000  Level Los Angeles Center
Tue 09:30:47 PM 36.6533 -112.4222 67° East 450 518 37,000  Level Los Angeles Center
Tue 09:31:49 PM 36.7119 -112.2525 67° East 448 516 37,000  Level Los Angeles Center
Tue 09:32:51 PM 36.7603 -112.1119 67° East 446 513 37,000  Level Los Angeles Center
Tue 09:34:04 PM 36.8089 -111.9733 66° East 440 506 37,000  Level Los Angeles Center
Tue 09:35:06 PM 36.8653 -111.8047 67° East 440 506 37,000  Level Los Angeles Center
Tue 09:35:55 PM 36.8939 -111.7197 67° East 444 511 37,000  Level Denver Center
Tue 09:36:57 PM 36.9519 -111.5503 67° East 443 510 37,000  Level Denver Center
Tue 09:38:11 PM 37.0183 -111.3536 67° East 442 509 37,000  Level Denver Center
Tue 09:39:13 PM 37.0653 -111.2133 67° East 440 506 37,000  Level Denver Center
Tue 09:40:15 PM 37.1106 -111.0744 68° East 436 502 37,000  Level Denver Center
Tue 09:41:16 PM 37.1544 -110.9369 68° East 430 495 37,000  Level Denver Center
Tue 09:42:18 PM 37.1969 -110.8008 69° East 425 489 37,000  Level Denver Center
Tue 09:43:20 PM 37.2411 -110.6633 68° East 426 490 37,000  Level Denver Center
Tue 09:44:22 PM 37.2864 -110.5247 68° East 430 495 37,000  Level Denver Center
Tue 09:45:23 PM 37.3389 -110.3600 68° East 427 491 37,000  Level Denver Center
Tue 09:46:25 PM 37.3833 -110.2214 68° East 428 493 37,000  Level Denver Center
Tue 09:47:27 PM 37.4269 -110.0842 68° East 423 487 37,000  Level Denver Center
Tue 09:48:28 PM 37.4694 -109.9528 68° East 422 486 37,000  Level Denver Center
Tue 09:49:30 PM 37.5175 -109.7969 69° East 424 488 37,000  Level Denver Center
Tue 09:50:32 PM 37.5589 -109.6650 68° East 423 487 37,000  Level Denver Center
Tue 09:51:34 PM 37.6067 -109.5128 68° East 419 482 37,000  Level Denver Center
Tue 09:52:35 PM 37.6464 -109.3822 69° East 416 479 37,000  Level Denver Center
Tue 09:53:37 PM 37.6933 -109.2306 69° East 414 476 37,000  Level Denver Center
Tue 09:54:39 PM 37.7331 -109.1025 69° East 410 472 37,000  Level Denver Center
Tue 09:55:41 PM 37.7722 -108.9747 69° East 408 470 37,000  Level Denver Center
Tue 09:56:42 PM 37.8175 -108.8269 69° East 406 467 37,000  Level Denver Center
Tue 09:57:44 PM 37.8553 -108.6992 69° East 404 465 37,000  Level Denver Center
Tue 09:58:46 PM 37.9019 -108.5500 68° East 407 468 37,000  Level Denver Center
Tue 09:59:48 PM 37.9394 -108.4206 70° East 408 470 37,000  Level Denver Center
Tue 10:00:49 PM 37.9839 -108.2703 69° East 408 470 37,000  Level Denver Center
Tue 10:01:51 PM 38.0219 -108.1439 69° East 405 466 37,000  Level Denver Center
Tue 10:02:53 PM 38.0594 -108.0147 70° East 404 465 37,000  Level Denver Center
Tue 10:03:55 PM 38.1006 -107.8747 69° East 402 463 37,000  Level Denver Center
Tue 10:04:56 PM 38.1444 -107.7269 69° East 400 460 37,000  Level Denver Center
Tue 10:05:58 PM 38.1817 -107.5981 70° East 405 466 37,000  Level Denver Center
Tue 10:07:00 PM 38.2194 -107.4692 70° East 407 468 37,000  Level Denver Center
Tue 10:08:01 PM 38.2622 -107.3186 70° East 406 467 37,000  Level Denver Center
Tue 10:09:03 PM 38.3031 -107.1783 70° East 409 471 37,000  Level Denver Center
Tue 10:10:17 PM 38.3497 -107.0136 70° East 419 482 37,000  Level Denver Center
Tue 10:11:31 PM 38.3883 -106.8750 70° East 417 480 37,000  Level Denver Center
Tue 10:12:33 PM 38.4353 -106.7097 70° East 414 476 37,000  Level Denver Center
Tue 10:13:35 PM 38.4744 -106.5714 70° East 414 476 37,000  Level Denver Center
Tue 10:14:36 PM 38.5197 -106.4056 71° East 415 478 37,000  Level Denver Center
Tue 10:15:38 PM 38.5592 -106.2647 70° East 420 483 37,000  Level Denver Center
Tue 10:16:40 PM 38.5994 -106.1183 71° East 422 486 37,000  Level Denver Center
Tue 10:17:42 PM 38.6375 -105.9781 71° East 421 484 37,000  Level Denver Center
Tue 10:18:43 PM 38.6764 -105.8367 71° East 423 487 37,000  Level Denver Center
Tue 10:19:45 PM 38.7150 -105.6969 70° East 419 482 37,000  Level Denver Center
Tue 10:20:59 PM 38.7522 -105.5575 71° East 417 480 37,000  Level Denver Center
Tue 10:22:01 PM 38.8039 -105.3625 71° East 415 478 37,000  Level Denver Center
Tue 10:23:02 PM 38.8333 -105.2531 71° East 412 474 37,000  Level Denver Center
Tue 10:24:04 PM 38.8772 -105.0844 71° East 415 478 37,000  Level Denver Center
Tue 10:25:05 PM 38.9136 -104.9447 71° East 415 478 37,000  Level Denver Center
Tue 10:26:07 PM 38.9506 -104.8056 71° East 415 478 37,000  Level Denver Center
Tue 10:27:08 PM 38.9878 -104.6642 71° East 419 482 37,000  Level Denver Center
Tue 10:28:10 PM 39.0247 -104.5194 72° East 427 491 37,000  Level Denver Center
Tue 10:29:11 PM 39.0689 -104.3444 72° East 432 497 37,000  Level Denver Center
Tue 10:30:13 PM 39.1061 -104.1981 72° East 433 498 37,000  Level Denver Center
Tue 10:31:14 PM 39.1431 -104.0525 72° East 431 496 37,000  Level Denver Center
Tue 10:32:16 PM 39.1797 -103.9083 72° East 427 491 37,000  Level Denver Center
Tue 10:33:17 PM 39.2161 -103.7628 72° East 429 494 37,000  Level Denver Center
Tue 10:34:19 PM 39.2528 -103.6189 72° East 426 490 37,000  Level Denver Center
Tue 10:35:20 PM 39.2956 -103.4439 72° East 428 493 37,000  Level Denver Center
Tue 10:36:22 PM 39.3317 -103.2972 72° East 429 494 37,000  Level Denver Center
Tue 10:37:23 PM 39.3661 -103.1525 73° East 425 489 37,000  Level Denver Center
Tue 10:38:25 PM 39.4022 -103.0097 72° East 421 484 37,000  Level Denver Center
Tue 10:39:26 PM 39.4369 -102.8647 73° East 423 487 37,000  Level Denver Center
Tue 10:40:28 PM 39.4711 -102.7197 73° East 423 487 37,000  Level Denver Center
Tue 10:41:29 PM 39.5064 -102.5736 73° East 424 488 37,000  Level Denver Center
Tue 10:42:31 PM 39.5406 -102.4283 73° East 423 487 37,000  Level Denver Center
Tue 10:43:32 PM 39.5769 -102.2697 73° East 421 484 37,000  Level Denver Center
Tue 10:44:34 PM 39.6150 -102.1094 73° East 418 481 37,000  Level Denver Center
Tue 10:45:35 PM 39.6472 -101.9725 73° East 416 479 37,000  Level Denver Center
Tue 10:46:36 PM 39.6778 -101.8358 74° East 413 475 37,000  Level Denver Center
Tue 10:47:38 PM 39.7156 -101.6767 73° East 414 476 37,000  Level Denver Center
Tue 10:48:39 PM 39.7461 -101.5406 74° East 413 475 37,000  Level Denver Center
Tue 10:49:41 PM 39.7819 -101.3803 74° East 414 476 37,000  Level Denver Center
Tue 10:50:42 PM 39.8131 -101.2422 74° East 417 480 37,000  Level Denver Center
Tue 10:51:55 PM 39.8481 -101.0806 74° East 417 480 37,000  Level Denver Center
Tue 10:52:57 PM 39.8833 -100.9189 74° East 418 481 37,000  Level Denver Center
Tue 10:53:59 PM 39.9189 -100.7583 74° East 416 479 37,000  Level Denver Center
Tue 10:55:00 PM 39.9489 -100.6208 74° East 415 478 37,000  Level Denver Center
Tue 10:56:01 PM 39.9836 -100.4550 75° East 424 488 37,000  Level Denver Center
Tue 10:57:03 PM 40.0147 -100.3142 74° East 424 488 37,000  Level Denver Center
Tue 10:58:04 PM 40.0439 -100.1736 75° East 425 489 37,000  Level Denver Center
Tue 10:59:05 PM 40.0792 -100.0056 75° East 427 491 37,000  Level Denver Center
Tue 11:00:07 PM 40.1069 -99.8758 74° East 425 489 37,000  Level Denver Center
Tue 11:01:08 PM 40.1439 -99.6956 75° East 429 494 37,000  Level Denver Center
Tue 11:02:10 PM 40.1753 -99.5456 75° East 429 494 37,000  Level Denver Center
Tue 11:03:11 PM 40.2056 -99.3933 75° East 433 498 37,000  Level Denver Center
Tue 11:04:13 PM 40.2361 -99.2414 75° East 433 498 37,000  Level Denver Center
Tue 11:05:14 PM 40.2672 -99.0897 75° East 434 499 37,000  Level Denver Center
Tue 11:06:15 PM 40.2981 -98.9367 75° East 436 502 37,000  Level Denver Center
Tue 11:07:17 PM 40.3281 -98.7831 76° East 437 503 37,000  Level Denver Center
Tue 11:08:18 PM 40.3581 -98.6289 76° East 438 504 37,000  Level Denver Center
Tue 11:09:20 PM 40.3947 -98.4408 76° East 446 513 37,000  Level Denver Center
Tue 11:10:32 PM 40.4314 -98.2536 76° East 443 510 37,000  Level Minneapolis Center
Tue 11:11:33 PM 40.4614 -98.0986 76° East 443 510 37,000  Level Minneapolis Center
Tue 11:12:34 PM 40.4894 -97.9425 77° East 442 509 37,000  Level Minneapolis Center
Tue 11:13:35 PM 40.5197 -97.7878 76° East 441 507 37,000  Level Minneapolis Center
Tue 11:14:36 PM 40.5497 -97.6303 76° East 443 510 37,000  Level Minneapolis Center
Tue 11:15:37 PM 40.5775 -97.4725 77° East 444 511 37,000  Level Minneapolis Center
Tue 11:16:38 PM 40.6067 -97.3100 77° East 449 517 37,000  Level Minneapolis Center
Tue 11:17:39 PM 40.6378 -97.1483 76° East 454 522 37,000  Level Minneapolis Center
Tue 11:18:40 PM 40.6667 -96.9864 77° East 456 525 37,000  Level Minneapolis Center
Tue 11:19:41 PM 40.6958 -96.8236 77° East 458 527 37,000  Level Minneapolis Center
Tue 11:20:42 PM 40.7244 -96.6603 77° East 460 529 37,000  Level Minneapolis Center
Tue 11:21:43 PM 40.7528 -96.4983 77° East 457 526 37,000  Level Minneapolis Center
Tue 11:22:44 PM 40.7875 -96.3061 77° East 454 522 37,000  Level Minneapolis Center
Tue 11:23:45 PM 40.8142 -96.1469 77° East 451 519 37,000  Level Minneapolis Center
Tue 11:24:46 PM 40.8414 -95.9881 77° East 449 517 37,000  Level Minneapolis Center
Tue 11:25:47 PM 40.8686 -95.8286 77° East 449 517 37,000 590 Level Minneapolis Center
Tue 11:26:48 PM 40.8958 -95.6672 77° East 451 519 38,200 984 Climbing Minneapolis Center
Tue 11:27:49 PM 40.9225 -95.5081 77° East 450 518 39,000 393 Climbing Minneapolis Center
Tue 11:28:50 PM 40.9486 -95.3486 78° East 447 514 39,000  Level Minneapolis Center
Tue 11:29:51 PM 40.9758 -95.1886 77° East 448 516 39,000  Level Minneapolis Center
Tue 11:30:52 PM 41.0014 -95.0272 78° East 449 517 39,000  Level Minneapolis Center
Tue 11:31:52 PM 41.0283 -94.8650 78° East 450 518 39,000  Level Minneapolis Center
Tue 11:32:53 PM 41.0592 -94.6703 78° East 451 519 39,000  Level Minneapolis Center
Tue 11:33:54 PM 41.0850 -94.5078 78° East 453 521 39,000  Level Minneapolis Center
Tue 11:34:55 PM 41.1100 -94.3442 78° East 455 524 39,000  Level Minneapolis Center
Tue 11:35:56 PM 41.1344 -94.1828 79° East 454 522 39,000  Level Minneapolis Center
Tue 11:36:57 PM 41.1583 -94.0219 79° East 450 518 39,000  Level Minneapolis Center
Tue 11:37:58 PM 41.1833 -93.8594 78° East 452 520 39,000  Level Minneapolis Center
Tue 11:38:59 PM 41.2072 -93.6989 79° East 449 517 39,000  Level Minneapolis Center
Tue 11:39:59 PM 41.2317 -93.5369 79° East 450 518 39,000  Level Minneapolis Center
Tue 11:41:00 PM 41.2564 -93.3750 78° East 450 518 39,000  Level Minneapolis Center
Tue 11:42:01 PM 41.2794 -93.2156 79° East 445 512 39,000  Level Minneapolis Center
Tue 11:43:02 PM 41.3022 -93.0544 79° East 445 512 39,000  Level Minneapolis Center
Tue 11:44:03 PM 41.3256 -92.8919 79° East 448 516 39,000  Level Minneapolis Center
Tue 11:45:04 PM 41.3536 -92.6956 79° East 452 520 39,000  Level Minneapolis Center
Tue 11:46:04 PM 41.3719 -92.5650 79° East 452 520 39,000  Level Minneapolis Center
Tue 11:47:05 PM 41.3989 -92.3672 80° East 454 522 39,000  Level Minneapolis Center
Tue 11:48:06 PM 41.4206 -92.2025 80° East 455 524 39,000  Level Minneapolis Center
Tue 11:49:07 PM 41.4428 -92.0394 80° East 453 521 39,000  Level Minneapolis Center
Tue 11:50:08 PM 41.4642 -91.8769 80° East 451 519 39,000  Level Minneapolis Center
Tue 11:51:09 PM 41.4872 -91.7025 80° East 446 513 39,000  Level Minneapolis Center
Tue 11:52:31 PM 41.5150 -91.4892 80° East 452 520 39,000  Level Chicago Center
Tue 11:53:31 PM 41.5358 -91.3239 80° East 457 526 39,000  Level Chicago Center
Tue 11:54:32 PM 41.5578 -91.1586 80° East 459 528 39,000  Level Chicago Center
Tue 11:55:33 PM 41.5781 -90.9903 81° East 464 534 39,000  Level Chicago Center
Tue 11:56:34 PM 41.6022 -90.7911 81° East 462 532 39,000  Level Chicago Center
Tue 11:57:34 PM 41.6233 -90.6242 80° East 463 533 39,000  Level Chicago Center
Tue 11:58:35 PM 41.6425 -90.4628 81° East 464 534 39,000  Level Chicago Center
Tue 11:59:36 PM 41.6622 -90.2928 81° East 463 533 39,000  Level Chicago Center
Wed 12:00:37 AM 41.6822 -90.1239 81° East 460 529 39,000  Level Chicago Center
Wed 12:01:37 AM 41.7022 -89.9539 81° East 462 532 39,000  Level Chicago Center
Wed 12:02:38 AM 41.7222 -89.7825 81° East 463 533 39,000  Level Chicago Center
Wed 12:03:38 AM 41.7406 -89.6125 82° East 463 533 39,000  Level Chicago Center
Wed 12:04:39 AM 41.7575 -89.4461 82° East 455 524 39,000  Level Chicago Center
Wed 12:05:40 AM 41.7750 -89.2758 82° East 460 529 39,000  Level Chicago Center
Wed 12:06:40 AM 41.7942 -89.1044 81° East 461 531 39,000  Level Chicago Center
Wed 12:07:41 AM 41.8131 -88.9322 82° East 465 535 39,000  Level Chicago Center
Wed 12:08:41 AM 41.8311 -88.7600 82° East 468 539 39,000  Level Chicago Center
Wed 12:09:42 AM 41.8486 -88.5869 82° East 469 540 39,000  Level Chicago Center
Wed 12:10:43 AM 41.8719 -88.3744 82° East 475 547 39,000  Level Chicago Center
Wed 12:11:43 AM 41.8892 -88.1978 82° East 477 549 39,000  Level Chicago Center
Wed 12:12:44 AM 41.9056 -88.0197 83° East 478 550 39,000  Level Chicago Center
Wed 12:13:44 AM 41.9231 -87.8408 82° East 482 555 39,000  Level Chicago Center
Wed 12:14:45 AM 41.9400 -87.6617 83° East 483 556 39,000  Level Chicago Center
Wed 12:15:45 AM 41.9564 -87.4836 83° East 481 554 39,000  Level Chicago Center
Wed 12:16:46 AM 41.9725 -87.3031 83° East 486 559 39,000  Level Chicago Center
Wed 12:17:46 AM 41.9889 -87.1250 83° East 482 555 39,000  Level Chicago Center
Wed 12:18:47 AM 42.0050 -86.9447 83° East 486 559 39,000  Level Chicago Center
Wed 12:19:48 AM 42.0197 -86.7644 84° East 486 559 39,000  Level Chicago Center
Wed 12:20:48 AM 42.0347 -86.6056 83° East 485 558 39,000  Level Chicago Center
Wed 12:21:49 AM 42.0494 -86.4231 84° East 489 563 39,000  Level Chicago Center
Wed 12:22:49 AM 42.0633 -86.2414 84° East 489 563 39,000  Level Chicago Center
Wed 12:23:50 AM 42.0789 -86.0567 83° East 494 568 39,000  Level Chicago Center
Wed 12:24:50 AM 42.0958 -85.8478 84° East 501 577 39,000  Level Chicago Center
Wed 12:25:51 AM 42.1089 -85.6625 85° East 503 579 39,000  Level Chicago Center
Wed 12:26:51 AM 42.1233 -85.4725 84° East 512 589 39,000  Level Chicago Center
Wed 12:27:52 AM 42.1375 -85.2839 84° East 511 588 39,000  Level Chicago Center
Wed 12:28:52 AM 42.1519 -85.0903 84° East 521 600 39,000  Level Chicago Center
Wed 12:29:53 AM 42.1656 -84.9025 84° East 511 588 39,000  Level Chicago Center
Wed 12:30:53 AM 42.1792 -84.7136 84° East 509 586 39,000  Level Chicago Center
Wed 12:31:54 AM 42.1906 -84.5278 85° East 502 578 39,000  Level Chicago Center
Wed 12:32:54 AM 42.2033 -84.3400 85° East 504 580 39,000  Level Chicago Center
Wed 12:33:54 AM 42.2153 -84.1519 85° East 507 583 39,000  Level Chicago Center
Wed 12:34:55 AM 42.2278 -83.9636 85° East 506 582 39,000  Level Chicago Center
Wed 12:36:07 AM 42.2378 -83.7272 87° East 495 570 39,000  Level Cleveland Center
Wed 12:37:07 AM 42.2517 -83.5175 85° East 500 575 39,000  Level Cleveland Center
Wed 12:38:07 AM 42.2692 -83.3247 83° East 505 581 39,000  Level Cleveland Center
Wed 12:39:07 AM 42.2861 -83.1317 83° East 514 592 39,000  Level Cleveland Center
Wed 12:40:07 AM 42.3025 -82.9469 83° East 514 592 39,000  Level Cleveland Center
Wed 12:41:07 AM 42.3208 -82.7567 83° East 508 585 39,000  Level Cleveland Center
Wed 12:42:07 AM 42.3367 -82.5719 83° East 508 585 39,000  Level Cleveland Center
Wed 12:43:07 AM 42.3525 -82.3786 84° East 502 578 39,000  Level Cleveland Center
Wed 12:44:07 AM 42.3678 -82.1906 84° East 502 578 39,000  Level Cleveland Center
Wed 12:45:07 AM 42.3844 -82.0225 82° East 497 572 39,000  Level Cleveland Center
Wed 12:46:07 AM 42.4014 -81.8175 84° East 505 581 39,000  Level Cleveland Center
Wed 12:47:07 AM 42.4139 -81.6236 85° East 500 575 39,000  Level Cleveland Center
Wed 12:48:07 AM 42.4300 -81.4328 83° East 500 575 39,000  Level Cleveland Center
Wed 12:49:07 AM 42.4436 -81.2444 84° East 506 582 39,000  Level Cleveland Center
Wed 12:50:07 AM 42.4572 -81.0558 84° East 506 582 39,000  Level Cleveland Center
Wed 12:51:07 AM 42.4703 -80.8675 85° East 506 582 39,000  Level Cleveland Center
Wed 12:52:07 AM 42.4831 -80.6817 85° East 499 574 39,000  Level Cleveland Center
Wed 12:53:07 AM 42.4978 -80.4931 84° East 499 574 39,000  Level Cleveland Center
Wed 12:54:07 AM 42.5058 -80.3242 86° East 499 574 39,000  Level Cleveland Center
Wed 12:55:07 AM 42.5197 -80.1353 84° East 494 568 39,000  Level Cleveland Center
Wed 12:56:07 AM 42.5356 -79.9492 83° East 499 574 39,000  Level Cleveland Center
Wed 12:57:07 AM 42.5469 -79.7631 85° East 499 574 39,000  Level Cleveland Center
Wed 12:58:07 AM 42.5558 -79.5742 86° East 499 574 39,000  Level Cleveland Center
Wed 12:59:07 AM 42.5667 -79.3908 85° East 499 574 39,000  Level Cleveland Center
Wed 01:00:07 AM 42.5792 -79.2017 85° East 499 574 39,000  Level Cleveland Center
Wed 01:01:07 AM 42.5892 -79.0153 86° East 499 574 39,000  Level Cleveland Center
Wed 01:02:07 AM 42.5969 -78.8261 87° East 499 574 39,000  Level Cleveland Center
Wed 01:03:07 AM 42.6064 -78.6367 86° East 499 574 39,000  Level Cleveland Center
Wed 01:04:07 AM 42.6156 -78.4503 86° East 499 574 39,000  Level Cleveland Center
Wed 01:05:07 AM 42.6244 -78.2608 86° East 504 580 39,000  Level Cleveland Center
Wed 01:06:07 AM 42.6331 -78.0714 86° East 498 573 39,000  Level Cleveland Center
Wed 01:07:07 AM 42.6414 -77.8875 86° East 498 573 39,000  Level Cleveland Center
Wed 01:08:07 AM 42.6489 -77.6783 87° East 498 573 39,000  Level Cleveland Center
Wed 01:09:07 AM 42.6564 -77.4917 87° East 498 573 39,000 -528 Level Cleveland Center
Wed 01:11:20 AM 42.6747 -77.0781 86° East 494 568 37,300 -839 Descending Boston Center
Wed 01:12:20 AM 42.6803 -76.8889 88° East 499 574 36,300 -950 Descending Boston Center
Wed 01:13:20 AM 42.6875 -76.6975 87° East 499 574 35,400 -850 Descending Boston Center
Wed 01:14:20 AM 42.6933 -76.5422 87° East 499 574 34,600 -950 Descending Boston Center
Wed 01:15:20 AM 42.6992 -76.3139 88° East 499 574 33,500 -1,100 Descending Boston Center
Wed 01:16:20 AM 42.7056 -76.1247 87° East 499 574 32,400 -1,400 Descending Boston Center
Wed 01:17:20 AM 42.7114 -75.9331 88° East 493 567 30,700 -2,200 Descending Boston Center
Wed 01:18:20 AM 42.7150 -75.7436 88° East 498 573 28,000 -2,650 Descending Boston Center
Wed 01:19:20 AM 42.7181 -75.5603 89° East 487 560 25,400 -2,600 Descending Boston Center
Wed 01:20:20 AM 42.7228 -75.3850 88° East 476 548 22,800 -2,550 Descending Boston Center
Wed 01:21:20 AM 42.7272 -75.2128 88° East 465 535 20,300 -2,450 Descending Boston Center
Wed 01:22:20 AM 42.7311 -75.0492 88° East 450 518 17,900 -2,350 Descending Boston Center
Wed 01:23:20 AM 42.7325 -74.8881 89° East 430 495 15,600 -2,350 Descending Boston Center
Wed 01:24:20 AM 42.7358 -74.7356 88° East 418 481 13,200 -2,300 Descending Boston Center
Wed 01:25:20 AM 42.7386 -74.5886 88° East 394 453 11,000 -1,150 Descending Boston Center
Wed 01:26:20 AM 42.7450 -74.4586 86° East 367 422 10,900 -800 Descending Boston Center
Wed 01:27:20 AM 42.7700 -74.3464 73° East 317 365 9,400 -1,650 Descending Boston Center
Wed 01:28:20 AM 42.7906 -74.2339 76° East 303 349 7,600 -2,150 Descending Boston Center
Wed 01:29:20 AM 42.8111 -74.1269 75° East 292 336 5,100 -2,150 Descending Boston Center
Wed 01:30:20 AM 42.8289 -74.0339 75° East 287 330 3,300 -1,150 Descending Boston Center
Wed 01:31:20 AM 42.8489 -73.9411 74° East 275 316 2,800 -300 Descending Boston Center
Wed 01:32:20 AM 42.8650 -73.8394 78° East 248 285 2,700 -500 Descending Boston Center
Wed 01:33:20 AM 42.8319 -73.8103 147° Southeast 195 224 1,800 -896 Descending Boston Center
Wed 01:34:34 AM 42.7797 -73.8092 179° South 114 131 700 -892 Descending Boston Center

Login

Don't have an account? Register now (free) for customized features, flight alerts, and more!